Date,TemperatureHighF,TemperatureAvgF,TemperatureLowF,DewpointHighF,DewpointAvgF,DewpointLowF,HumidityHigh,HumidityAvg,HumidityLow,PressureMaxIn,PressureMinIn,WindSpeedMaxMPH,WindSpeedAvgMPH,GustSpeedMaxMPH,PrecipitationSumIn
2013-6-1,108.0,89.6,72.0,53.0,44.9,29.0,47,26,7,29.77,29.65,8,1,10,0.00
2013-6-2,104.0,91.2,76.0,46.0,34.2,20.0,31,16,6,29.71,29.59,18,7,23,0.00
2013-6-3,100.0,88.0,74.0,47.0,37.4,21.0,34,18,6,29.75,29.62,16,7,19,0.00
2013-6-4,99.0,86.1,71.0,48.0,38.7,26.0,40,21,8,29.80,29.70,12,4,16,0.00
2013-6-5,106.0,90.4,70.0,44.0,30.3,19.0,36,15,5,29.84,29.71,8,3,9,0.00
2013-6-6,110.0,94.5,75.0,37.0,27.9,21.0,22,11,5,29.77,29.65,10,4,10,0.00
2013-6-7,111.0,94.7,77.0,39.0,25.6,16.0,24,10,5,29.72,29.61,12,4,16,0.00
2013-6-8,100.0,91.5,79.0,56.0,39.2,16.0,36,18,6,29.76,29.63,18,9,21,0.00
2013-6-9,100.0,89.7,73.0,51.0,31.6,14.0,40,15,6,29.83,29.73,17,6,17,0.00
2013-6-10,105.0,90.5,70.0,41.0,25.2,16.0,32,12,5,29.80,29.71,15,6,19,0.00
2013-6-11,110.0,95.1,77.0,44.0,27.0,18.0,20,10,4,29.84,29.74,7,2,8,0.00
2013-6-12,103.0,90.9,80.0,49.0,40.7,34.0,30,18,10,29.86,29.76,14,5,17,0.00
2013-6-13,102.0,90.8,79.0,51.0,42.3,34.0,36,20,10,29.88,29.74,14,5,15,0.00
2013-6-14,101.0,87.9,75.0,47.0,39.9,21.0,36,20,6,29.82,29.68,13,5,15,0.00
2013-6-15,101.0,85.6,74.0,45.0,34.7,21.0,33,19,6,29.82,29.72,13,4,13,0.00
2013-6-16,107.0,92.6,78.0,38.0,24.7,13.0,16,10,4,29.89,29.78,8,3,10,0.00
2013-6-17,107.0,90.2,74.0,40.0,30.4,18.0,27,14,5,29.86,29.73,10,3,11,0.00
2013-6-18,106.0,88.6,72.0,39.0,29.6,18.0,29,15,5,29.79,29.66,11,3,13,0.00
2013-6-19,107.0,89.2,77.0,44.0,29.5,15.0,24,14,4,29.73,29.64,12,3,13,0.00
2013-6-20,101.0,86.3,76.0,49.0,40.7,30.0,37,23,9,29.76,29.68,9,4,10,0.00
2013-6-21,99.0,99.0,99.0,40.0,40.0,40.0,13,13,13,29.67,29.67,8,8,8,0.00
2013-6-22,103.0,95.9,86.0,49.0,41.0,33.0,27,16,9,29.80,29.67,11,6,17,0.00
2013-6-23,101.0,88.5,73.0,45.0,41.0,38.0,31,20,12,29.72,29.61,14,6,18,0.00
2013-6-24,101.0,83.6,72.0,50.0,44.7,34.0,40,27,10,29.80,29.68,11,2,11,0.00
2013-6-25,100.0,86.5,73.0,60.0,48.5,40.0,44,29,13,29.87,29.77,12,3,12,0.00
2013-6-26,100.0,94.8,89.0,47.0,39.7,35.0,24,15,11,29.93,29.84,13,9,14,0.00
2013-6-27,104.0,85.6,73.0,54.0,38.7,-99.9,33,23,15,29.97,29.87,12,4,15,0.00
2013-6-28,105.0,93.4,84.0,53.0,48.7,40.0,30,23,13,29.88,29.75,7,2,9,0.00
2013-6-29,106.0,97.2,89.0,55.0,47.0,40.0,24,19,12,29.76,29.67,17,7,22,0.00
2013-6-30,108.0,96.8,87.0,60.0,54.7,51.0,35,25,16,29.78,29.66,23,9,23,0.00